sensor_id;sensor_type;location;lat;lon;timestamp;P1;durP1;ratioP1;P2;durP2;ratioP2
63087;SDS011;49173;43.164;27.786;2022-12-05T00:00:19;2.85;;;2.00;;
63087;SDS011;49173;43.164;27.786;2022-12-05T00:02:45;2.80;;;1.67;;
63087;SDS011;49173;43.164;27.786;2022-12-05T00:05:11;2.50;;;1.67;;
63087;SDS011;49173;43.164;27.786;2022-12-05T00:07:37;2.95;;;2.10;;
63087;SDS011;49173;43.164;27.786;2022-12-05T00:10:05;3.13;;;1.70;;
63087;SDS011;49173;43.164;27.786;2022-12-05T00:12:31;2.08;;;1.48;;
63087;SDS011;49173;43.164;27.786;2022-12-05T00:14:57;2.70;;;1.60;;
63087;SDS011;49173;43.164;27.786;2022-12-05T00:17:23;2.70;;;1.90;;
63087;SDS011;49173;43.164;27.786;2022-12-05T00:19:49;3.63;;;1.95;;
63087;SDS011;49173;43.164;27.786;2022-12-05T00:22:15;2.60;;;2.10;;
63087;SDS011;49173;43.164;27.786;2022-12-05T00:24:40;2.92;;;2.33;;
63087;SDS011;49173;43.164;27.786;2022-12-05T00:27:06;3.20;;;2.55;;
63087;SDS011;49173;43.164;27.786;2022-12-05T00:29:32;3.10;;;2.40;;
63087;SDS011;49173;43.164;27.786;2022-12-05T00:31:58;3.05;;;2.55;;
63087;SDS011;49173;43.164;27.786;2022-12-05T00:34:24;4.05;;;3.08;;
63087;SDS011;49173;43.164;27.786;2022-12-05T00:36:50;3.42;;;2.80;;
63087;SDS011;49173;43.164;27.786;2022-12-05T00:39:16;4.10;;;3.40;;
63087;SDS011;49173;43.164;27.786;2022-12-05T00:41:42;8.45;;;6.10;;
63087;SDS011;49173;43.164;27.786;2022-12-05T00:44:09;7.93;;;7.13;;
63087;SDS011;49173;43.164;27.786;2022-12-05T00:46:35;3.53;;;3.10;;
63087;SDS011;49173;43.164;27.786;2022-12-05T00:49:02;3.00;;;2.35;;
63087;SDS011;49173;43.164;27.786;2022-12-05T00:51:30;2.95;;;2.30;;
63087;SDS011;49173;43.164;27.786;2022-12-05T00:54:02;3.55;;;2.90;;
63087;SDS011;49173;43.164;27.786;2022-12-05T00:56:30;4.63;;;3.85;;
63087;SDS011;49173;43.164;27.786;2022-12-05T00:58:57;4.20;;;3.80;;
63087;SDS011;49173;43.164;27.786;2022-12-05T01:01:26;5.55;;;4.07;;
63087;SDS011;49173;43.164;27.786;2022-12-05T01:03:55;4.93;;;4.40;;
63087;SDS011;49173;43.164;27.786;2022-12-05T01:06:22;4.40;;;3.70;;
63087;SDS011;49173;43.164;27.786;2022-12-05T01:08:49;4.93;;;4.00;;
63087;SDS011;49173;43.164;27.786;2022-12-05T01:11:17;4.93;;;4.43;;
63087;SDS011;49173;43.164;27.786;2022-12-05T01:13:44;8.70;;;7.72;;
63087;SDS011;49173;43.164;27.786;2022-12-05T01:16:27;5.25;;;4.03;;
63087;SDS011;49173;43.164;27.786;2022-12-05T01:18:55;3.88;;;3.13;;
63087;SDS011;49173;43.164;27.786;2022-12-05T01:21:21;5.07;;;2.80;;
63087;SDS011;49173;43.164;27.786;2022-12-05T01:23:48;4.00;;;3.60;;
63087;SDS011;49173;43.164;27.786;2022-12-05T01:26:14;6.15;;;5.30;;
63087;SDS011;49173;43.164;27.786;2022-12-05T01:28:42;5.22;;;4.72;;
63087;SDS011;49173;43.164;27.786;2022-12-05T01:31:30;3.28;;;2.38;;
63087;SDS011;49173;43.164;27.786;2022-12-05T01:33:58;3.47;;;1.73;;
63087;SDS011;49173;43.164;27.786;2022-12-05T01:36:26;2.35;;;1.70;;
63087;SDS011;49173;43.164;27.786;2022-12-05T01:38:53;3.15;;;1.80;;
63087;SDS011;49173;43.164;27.786;2022-12-05T01:41:24;5.93;;;5.32;;
63087;SDS011;49173;43.164;27.786;2022-12-05T01:43:56;3.95;;;3.35;;
63087;SDS011;49173;43.164;27.786;2022-12-05T01:46:28;3.08;;;2.50;;
63087;SDS011;49173;43.164;27.786;2022-12-05T01:49:03;3.53;;;2.70;;
63087;SDS011;49173;43.164;27.786;2022-12-05T01:51:33;3.92;;;2.15;;
63087;SDS011;49173;43.164;27.786;2022-12-05T01:54:02;2.70;;;1.90;;
63087;SDS011;49173;43.164;27.786;2022-12-05T01:56:29;4.22;;;2.00;;
63087;SDS011;49173;43.164;27.786;2022-12-05T01:58:57;2.70;;;2.10;;
63087;SDS011;49173;43.164;27.786;2022-12-05T02:01:24;3.65;;;3.00;;
63087;SDS011;49173;43.164;27.786;2022-12-05T02:03:51;3.72;;;2.53;;
63087;SDS011;49173;43.164;27.786;2022-12-05T02:06:20;2.63;;;2.00;;
63087;SDS011;49173;43.164;27.786;2022-12-05T02:08:48;2.88;;;2.10;;
63087;SDS011;49173;43.164;27.786;2022-12-05T02:11:15;2.17;;;1.70;;
63087;SDS011;49173;43.164;27.786;2022-12-05T02:27:18;3.00;;;2.40;;
63087;SDS011;49173;43.164;27.786;2022-12-05T02:30:24;3.55;;;1.73;;
63087;SDS011;49173;43.164;27.786;2022-12-05T02:35:27;2.50;;;1.77;;
63087;SDS011;49173;43.164;27.786;2022-12-05T02:38:25;2.92;;;1.90;;
63087;SDS011;49173;43.164;27.786;2022-12-05T02:40:59;2.30;;;1.70;;
63087;SDS011;49173;43.164;27.786;2022-12-05T02:46:18;5.72;;;2.90;;
63087;SDS011;49173;43.164;27.786;2022-12-05T02:48:48;4.80;;;3.40;;
63087;SDS011;49173;43.164;27.786;2022-12-05T02:51:20;4.88;;;3.00;;
63087;SDS011;49173;43.164;27.786;2022-12-05T02:53:49;6.55;;;3.10;;
63087;SDS011;49173;43.164;27.786;2022-12-05T02:56:16;5.28;;;2.92;;
63087;SDS011;49173;43.164;27.786;2022-12-05T02:58:51;4.75;;;2.83;;
63087;SDS011;49173;43.164;27.786;2022-12-05T03:01:20;5.78;;;3.08;;
63087;SDS011;49173;43.164;27.786;2022-12-05T03:03:48;3.80;;;2.40;;
63087;SDS011;49173;43.164;27.786;2022-12-05T03:06:19;5.47;;;2.72;;
63087;SDS011;49173;43.164;27.786;2022-12-05T03:09:02;5.25;;;2.67;;
63087;SDS011;49173;43.164;27.786;2022-12-05T03:11:40;3.55;;;2.30;;
63087;SDS011;49173;43.164;27.786;2022-12-05T03:14:12;2.53;;;2.03;;
63087;SDS011;49173;43.164;27.786;2022-12-05T03:16:54;3.17;;;2.20;;
63087;SDS011;49173;43.164;27.786;2022-12-05T03:22:01;3.78;;;2.55;;
63087;SDS011;49173;43.164;27.786;2022-12-05T03:24:32;9.38;;;8.32;;
63087;SDS011;49173;43.164;27.786;2022-12-05T03:29:52;5.05;;;3.60;;
63087;SDS011;49173;43.164;27.786;2022-12-05T03:35:07;3.47;;;3.10;;
63087;SDS011;49173;43.164;27.786;2022-12-05T03:40:31;2.50;;;2.00;;
63087;SDS011;49173;43.164;27.786;2022-12-05T03:51:03;3.30;;;2.33;;
63087;SDS011;49173;43.164;27.786;2022-12-05T03:53:43;4.28;;;2.08;;
63087;SDS011;49173;43.164;27.786;2022-12-05T03:59:13;3.78;;;2.30;;
63087;SDS011;49173;43.164;27.786;2022-12-05T04:01:45;4.70;;;2.75;;
63087;SDS011;49173;43.164;27.786;2022-12-05T04:04:20;5.40;;;3.50;;
63087;SDS011;49173;43.164;27.786;2022-12-05T04:06:54;4.70;;;4.20;;
63087;SDS011;49173;43.164;27.786;2022-12-05T04:09:26;3.72;;;2.83;;
63087;SDS011;49173;43.164;27.786;2022-12-05T04:11:58;3.83;;;2.23;;
63087;SDS011;49173;43.164;27.786;2022-12-05T04:14:35;3.25;;;2.33;;
63087;SDS011;49173;43.164;27.786;2022-12-05T04:17:05;6.20;;;3.72;;
63087;SDS011;49173;43.164;27.786;2022-12-05T04:22:30;13.00;;;7.38;;
63087;SDS011;49173;43.164;27.786;2022-12-05T04:24:57;11.18;;;6.47;;
63087;SDS011;49173;43.164;27.786;2022-12-05T04:30:17;7.45;;;3.67;;
63087;SDS011;49173;43.164;27.786;2022-12-05T04:32:59;4.70;;;3.30;;
63087;SDS011;49173;43.164;27.786;2022-12-05T04:35:29;4.20;;;2.80;;
63087;SDS011;49173;43.164;27.786;2022-12-05T04:38:05;6.15;;;3.80;;
63087;SDS011;49173;43.164;27.786;2022-12-05T04:40:37;3.92;;;2.90;;
63087;SDS011;49173;43.164;27.786;2022-12-05T04:45:32;3.72;;;2.90;;
63087;SDS011;49173;43.164;27.786;2022-12-05T04:48:02;4.18;;;3.33;;
63087;SDS011;49173;43.164;27.786;2022-12-05T04:50:34;5.05;;;3.88;;
63087;SDS011;49173;43.164;27.786;2022-12-05T04:53:03;3.43;;;2.80;;
63087;SDS011;49173;43.164;27.786;2022-12-05T04:55:31;3.40;;;2.38;;
63087;SDS011;49173;43.164;27.786;2022-12-05T04:58:10;3.42;;;2.50;;
63087;SDS011;49173;43.164;27.786;2022-12-05T05:00:54;3.58;;;2.83;;
63087;SDS011;49173;43.164;27.786;2022-12-05T05:06:16;3.00;;;2.20;;
63087;SDS011;49173;43.164;27.786;2022-12-05T05:08:46;2.60;;;2.00;;
63087;SDS011;49173;43.164;27.786;2022-12-05T05:11:18;3.65;;;2.60;;
63087;SDS011;49173;43.164;27.786;2022-12-05T05:13:47;4.13;;;2.55;;
63087;SDS011;49173;43.164;27.786;2022-12-05T05:16:14;3.92;;;2.83;;
63087;SDS011;49173;43.164;27.786;2022-12-05T05:18:45;3.53;;;2.45;;
63087;SDS011;49173;43.164;27.786;2022-12-05T05:21:19;3.95;;;3.00;;
63087;SDS011;49173;43.164;27.786;2022-12-05T05:23:49;4.82;;;3.40;;
63087;SDS011;49173;43.164;27.786;2022-12-05T05:26:15;6.35;;;4.72;;
63087;SDS011;49173;43.164;27.786;2022-12-05T05:28:42;14.05;;;10.95;;
63087;SDS011;49173;43.164;27.786;2022-12-05T05:31:09;19.17;;;15.48;;
63087;SDS011;49173;43.164;27.786;2022-12-05T05:33:35;13.05;;;10.52;;
63087;SDS011;49173;43.164;27.786;2022-12-05T05:36:02;18.60;;;13.15;;
63087;SDS011;49173;43.164;27.786;2022-12-05T05:38:40;11.13;;;8.13;;
63087;SDS011;49173;43.164;27.786;2022-12-05T05:41:14;13.98;;;7.97;;
63087;SDS011;49173;43.164;27.786;2022-12-05T05:43:45;11.10;;;8.40;;
63087;SDS011;49173;43.164;27.786;2022-12-05T05:46:11;13.07;;;9.55;;
63087;SDS011;49173;43.164;27.786;2022-12-05T05:48:38;6.78;;;5.82;;
63087;SDS011;49173;43.164;27.786;2022-12-05T05:51:05;6.13;;;4.80;;
63087;SDS011;49173;43.164;27.786;2022-12-05T05:53:32;4.88;;;4.22;;
63087;SDS011;49173;43.164;27.786;2022-12-05T05:56:02;6.63;;;4.38;;
63087;SDS011;49173;43.164;27.786;2022-12-05T05:58:32;5.55;;;4.53;;
63087;SDS011;49173;43.164;27.786;2022-12-05T06:01:17;8.43;;;5.97;;
63087;SDS011;49173;43.164;27.786;2022-12-05T06:03:47;7.80;;;5.43;;
63087;SDS011;49173;43.164;27.786;2022-12-05T06:06:14;5.47;;;3.88;;
63087;SDS011;49173;43.164;27.786;2022-12-05T06:08:42;6.10;;;3.67;;
63087;SDS011;49173;43.164;27.786;2022-12-05T06:11:10;5.80;;;3.78;;
63087;SDS011;49173;43.164;27.786;2022-12-05T06:13:37;4.40;;;3.13;;
63087;SDS011;49173;43.164;27.786;2022-12-05T06:16:04;5.88;;;4.70;;
63087;SDS011;49173;43.164;27.786;2022-12-05T06:18:32;4.80;;;3.70;;
63087;SDS011;49173;43.164;27.786;2022-12-05T06:20:58;3.88;;;3.40;;
63087;SDS011;49173;43.164;27.786;2022-12-05T06:23:24;4.90;;;3.92;;
63087;SDS011;49173;43.164;27.786;2022-12-05T06:25:52;7.18;;;5.25;;
63087;SDS011;49173;43.164;27.786;2022-12-05T06:28:19;6.82;;;5.50;;
63087;SDS011;49173;43.164;27.786;2022-12-05T06:30:47;5.65;;;4.70;;
63087;SDS011;49173;43.164;27.786;2022-12-05T06:33:13;5.70;;;4.72;;
63087;SDS011;49173;43.164;27.786;2022-12-05T06:35:39;6.32;;;5.30;;
63087;SDS011;49173;43.164;27.786;2022-12-05T06:38:05;6.68;;;4.97;;
63087;SDS011;49173;43.164;27.786;2022-12-05T06:40:32;7.32;;;5.45;;
63087;SDS011;49173;43.164;27.786;2022-12-05T06:42:58;7.15;;;5.22;;
63087;SDS011;49173;43.164;27.786;2022-12-05T06:45:24;7.70;;;5.90;;
63087;SDS011;49173;43.164;27.786;2022-12-05T06:47:50;7.38;;;5.60;;
63087;SDS011;49173;43.164;27.786;2022-12-05T06:50:16;9.90;;;7.43;;
63087;SDS011;49173;43.164;27.786;2022-12-05T06:52:42;8.95;;;6.45;;
63087;SDS011;49173;43.164;27.786;2022-12-05T06:55:08;9.40;;;6.72;;
63087;SDS011;49173;43.164;27.786;2022-12-05T06:57:34;6.47;;;5.20;;
63087;SDS011;49173;43.164;27.786;2022-12-05T07:00:00;5.88;;;5.25;;
63087;SDS011;49173;43.164;27.786;2022-12-05T07:02:45;6.68;;;5.50;;
63087;SDS011;49173;43.164;27.786;2022-12-05T07:05:11;6.60;;;5.40;;
63087;SDS011;49173;43.164;27.786;2022-12-05T07:07:37;6.30;;;4.68;;
63087;SDS011;49173;43.164;27.786;2022-12-05T07:10:03;7.28;;;5.00;;
63087;SDS011;49173;43.164;27.786;2022-12-05T07:12:31;5.57;;;4.00;;
63087;SDS011;49173;43.164;27.786;2022-12-05T07:14:58;5.47;;;3.70;;
63087;SDS011;49173;43.164;27.786;2022-12-05T07:17:24;9.23;;;5.57;;
63087;SDS011;49173;43.164;27.786;2022-12-05T07:19:50;9.50;;;7.13;;
63087;SDS011;49173;43.164;27.786;2022-12-05T07:22:18;10.05;;;7.90;;
63087;SDS011;49173;43.164;27.786;2022-12-05T07:24:46;8.05;;;6.35;;
63087;SDS011;49173;43.164;27.786;2022-12-05T07:27:12;5.43;;;4.53;;
63087;SDS011;49173;43.164;27.786;2022-12-05T07:29:39;18.63;;;10.32;;
63087;SDS011;49173;43.164;27.786;2022-12-05T07:32:05;10.27;;;6.90;;
63087;SDS011;49173;43.164;27.786;2022-12-05T07:34:32;6.30;;;3.50;;
63087;SDS011;49173;43.164;27.786;2022-12-05T07:36:58;6.35;;;4.55;;
63087;SDS011;49173;43.164;27.786;2022-12-05T07:39:24;9.40;;;6.22;;
63087;SDS011;49173;43.164;27.786;2022-12-05T07:41:50;22.50;;;14.90;;
63087;SDS011;49173;43.164;27.786;2022-12-05T07:44:16;23.10;;;16.63;;
63087;SDS011;49173;43.164;27.786;2022-12-05T07:46:42;17.50;;;10.18;;
63087;SDS011;49173;43.164;27.786;2022-12-05T07:49:08;10.82;;;8.77;;
63087;SDS011;49173;43.164;27.786;2022-12-05T07:51:34;5.13;;;4.00;;
63087;SDS011;49173;43.164;27.786;2022-12-05T07:54:00;7.05;;;4.78;;
63087;SDS011;49173;43.164;27.786;2022-12-05T07:56:26;4.93;;;4.13;;
63087;SDS011;49173;43.164;27.786;2022-12-05T07:58:52;4.80;;;3.40;;
63087;SDS011;49173;43.164;27.786;2022-12-05T08:01:19;8.27;;;4.53;;
63087;SDS011;49173;43.164;27.786;2022-12-05T08:03:47;11.83;;;6.20;;
63087;SDS011;49173;43.164;27.786;2022-12-05T08:06:18;17.00;;;9.65;;
63087;SDS011;49173;43.164;27.786;2022-12-05T08:08:48;11.65;;;7.07;;
63087;SDS011;49173;43.164;27.786;2022-12-05T08:11:25;9.77;;;5.25;;
63087;SDS011;49173;43.164;27.786;2022-12-05T08:13:53;9.60;;;6.47;;
63087;SDS011;49173;43.164;27.786;2022-12-05T08:16:23;9.13;;;8.10;;
63087;SDS011;49173;43.164;27.786;2022-12-05T08:19:01;17.50;;;10.23;;
63087;SDS011;49173;43.164;27.786;2022-12-05T08:21:30;14.90;;;8.50;;
63087;SDS011;49173;43.164;27.786;2022-12-05T08:23:56;8.35;;;4.00;;
63087;SDS011;49173;43.164;27.786;2022-12-05T08:26:26;7.20;;;5.10;;
63087;SDS011;49173;43.164;27.786;2022-12-05T08:28:55;7.18;;;4.25;;
63087;SDS011;49173;43.164;27.786;2022-12-05T08:31:24;35.00;;;17.73;;
63087;SDS011;49173;43.164;27.786;2022-12-05T08:33:52;23.30;;;13.65;;
63087;SDS011;49173;43.164;27.786;2022-12-05T08:36:18;32.03;;;14.02;;
63087;SDS011;49173;43.164;27.786;2022-12-05T08:38:44;107.00;;;43.03;;
63087;SDS011;49173;43.164;27.786;2022-12-05T08:41:12;109.93;;;43.50;;
63087;SDS011;49173;43.164;27.786;2022-12-05T08:43:41;86.55;;;38.05;;
63087;SDS011;49173;43.164;27.786;2022-12-05T08:46:07;9.27;;;5.80;;
63087;SDS011;49173;43.164;27.786;2022-12-05T08:48:34;9.57;;;5.90;;
63087;SDS011;49173;43.164;27.786;2022-12-05T08:51:06;8.02;;;4.72;;
63087;SDS011;49173;43.164;27.786;2022-12-05T08:53:36;10.77;;;5.03;;
63087;SDS011;49173;43.164;27.786;2022-12-05T08:56:04;7.53;;;5.13;;
63087;SDS011;49173;43.164;27.786;2022-12-05T08:58:31;7.65;;;3.92;;
63087;SDS011;49173;43.164;27.786;2022-12-05T09:03:37;6.32;;;5.03;;
63087;SDS011;49173;43.164;27.786;2022-12-05T09:06:05;6.38;;;4.38;;
63087;SDS011;49173;43.164;27.786;2022-12-05T09:08:31;9.57;;;4.75;;
63087;SDS011;49173;43.164;27.786;2022-12-05T09:10:57;7.20;;;5.20;;
63087;SDS011;49173;43.164;27.786;2022-12-05T09:13:23;8.25;;;5.32;;
63087;SDS011;49173;43.164;27.786;2022-12-05T09:15:49;8.38;;;6.47;;
63087;SDS011;49173;43.164;27.786;2022-12-05T09:18:15;7.63;;;5.40;;
63087;SDS011;49173;43.164;27.786;2022-12-05T09:20:40;9.40;;;6.18;;
63087;SDS011;49173;43.164;27.786;2022-12-05T09:23:06;6.20;;;4.43;;
63087;SDS011;49173;43.164;27.786;2022-12-05T09:25:32;7.05;;;5.78;;
63087;SDS011;49173;43.164;27.786;2022-12-05T09:27:58;31.55;;;11.38;;
63087;SDS011;49173;43.164;27.786;2022-12-05T09:30:23;6.90;;;5.28;;
63087;SDS011;49173;43.164;27.786;2022-12-05T09:32:49;11.15;;;7.38;;
63087;SDS011;49173;43.164;27.786;2022-12-05T09:35:15;9.25;;;7.10;;
63087;SDS011;49173;43.164;27.786;2022-12-05T09:37:40;7.70;;;6.30;;
63087;SDS011;49173;43.164;27.786;2022-12-05T09:40:06;5.60;;;4.57;;
63087;SDS011;49173;43.164;27.786;2022-12-05T09:42:52;6.55;;;4.50;;
63087;SDS011;49173;43.164;27.786;2022-12-05T09:45:34;7.28;;;5.00;;
63087;SDS011;49173;43.164;27.786;2022-12-05T09:48:05;8.93;;;7.03;;
63087;SDS011;49173;43.164;27.786;2022-12-05T09:50:44;8.25;;;5.65;;
63087;SDS011;49173;43.164;27.786;2022-12-05T09:56:01;12.05;;;8.27;;
63087;SDS011;49173;43.164;27.786;2022-12-05T09:58:47;8.50;;;6.38;;
63087;SDS011;49173;43.164;27.786;2022-12-05T10:07:04;7.10;;;5.88;;
63087;SDS011;49173;43.164;27.786;2022-12-05T10:15:15;15.88;;;11.18;;
63087;SDS011;49173;43.164;27.786;2022-12-05T10:20:55;16.13;;;10.63;;
63087;SDS011;49173;43.164;27.786;2022-12-05T10:23:24;13.05;;;9.82;;
63087;SDS011;49173;43.164;27.786;2022-12-05T10:25:57;12.60;;;8.48;;
63087;SDS011;49173;43.164;27.786;2022-12-05T10:31:06;7.22;;;4.80;;
63087;SDS011;49173;43.164;27.786;2022-12-05T10:34:21;8.15;;;6.05;;
63087;SDS011;49173;43.164;27.786;2022-12-05T10:36:30;6.10;;;5.38;;
63087;SDS011;49173;43.164;27.786;2022-12-05T10:38:57;8.02;;;5.88;;
63087;SDS011;49173;43.164;27.786;2022-12-05T10:41:23;11.18;;;6.68;;
63087;SDS011;49173;43.164;27.786;2022-12-05T10:43:49;9.68;;;6.03;;
63087;SDS011;49173;43.164;27.786;2022-12-05T10:46:15;12.45;;;6.22;;
63087;SDS011;49173;43.164;27.786;2022-12-05T10:48:42;6.43;;;4.80;;
63087;SDS011;49173;43.164;27.786;2022-12-05T10:51:16;7.10;;;4.60;;
63087;SDS011;49173;43.164;27.786;2022-12-05T10:53:46;10.02;;;5.05;;
63087;SDS011;49173;43.164;27.786;2022-12-05T10:59:02;7.55;;;5.60;;
63087;SDS011;49173;43.164;27.786;2022-12-05T11:01:29;6.15;;;4.70;;
63087;SDS011;49173;43.164;27.786;2022-12-05T11:03:56;7.93;;;4.25;;
63087;SDS011;49173;43.164;27.786;2022-12-05T11:06:24;5.55;;;4.15;;
63087;SDS011;49173;43.164;27.786;2022-12-05T11:08:54;5.82;;;4.35;;
63087;SDS011;49173;43.164;27.786;2022-12-05T11:11:28;6.63;;;3.55;;
63087;SDS011;49173;43.164;27.786;2022-12-05T11:14:19;6.13;;;3.88;;
63087;SDS011;49173;43.164;27.786;2022-12-05T11:16:50;7.45;;;3.00;;
63087;SDS011;49173;43.164;27.786;2022-12-05T11:21:58;3.75;;;2.88;;
63087;SDS011;49173;43.164;27.786;2022-12-05T11:24:29;7.95;;;4.13;;
63087;SDS011;49173;43.164;27.786;2022-12-05T11:27:00;6.05;;;3.70;;
63087;SDS011;49173;43.164;27.786;2022-12-05T11:29:54;7.43;;;3.97;;
63087;SDS011;49173;43.164;27.786;2022-12-05T11:32:25;7.15;;;4.15;;
63087;SDS011;49173;43.164;27.786;2022-12-05T11:34:57;7.03;;;4.10;;
63087;SDS011;49173;43.164;27.786;2022-12-05T11:37:53;6.18;;;5.30;;
63087;SDS011;49173;43.164;27.786;2022-12-05T11:51:43;6.78;;;4.65;;
63087;SDS011;49173;43.164;27.786;2022-12-05T11:57:47;9.50;;;6.10;;
63087;SDS011;49173;43.164;27.786;2022-12-05T12:05:49;6.47;;;4.20;;
63087;SDS011;49173;43.164;27.786;2022-12-05T12:08:26;13.80;;;6.78;;
63087;SDS011;49173;43.164;27.786;2022-12-05T12:13:48;5.28;;;4.20;;
63087;SDS011;49173;43.164;27.786;2022-12-05T12:24:41;17.30;;;10.07;;
63087;SDS011;49173;43.164;27.786;2022-12-05T12:30:16;8.90;;;5.60;;
63087;SDS011;49173;43.164;27.786;2022-12-05T12:51:34;19.77;;;10.35;;
63087;SDS011;49173;43.164;27.786;2022-12-05T13:05:35;11.25;;;5.30;;
63087;SDS011;49173;43.164;27.786;2022-12-05T13:08:15;9.07;;;6.65;;
63087;SDS011;49173;43.164;27.786;2022-12-05T13:13:28;10.23;;;3.80;;
63087;SDS011;49173;43.164;27.786;2022-12-05T13:16:01;7.65;;;3.90;;
63087;SDS011;49173;43.164;27.786;2022-12-05T13:18:32;5.43;;;3.42;;
63087;SDS011;49173;43.164;27.786;2022-12-05T13:20:59;7.95;;;4.28;;
63087;SDS011;49173;43.164;27.786;2022-12-05T13:23:31;6.22;;;3.47;;
63087;SDS011;49173;43.164;27.786;2022-12-05T13:26:00;6.30;;;3.20;;
63087;SDS011;49173;43.164;27.786;2022-12-05T13:31:14;6.82;;;4.53;;
63087;SDS011;49173;43.164;27.786;2022-12-05T13:33:42;8.18;;;4.35;;
63087;SDS011;49173;43.164;27.786;2022-12-05T13:36:11;6.10;;;4.15;;
63087;SDS011;49173;43.164;27.786;2022-12-05T13:38:57;6.88;;;4.95;;
63087;SDS011;49173;43.164;27.786;2022-12-05T13:41:46;5.97;;;3.90;;
63087;SDS011;49173;43.164;27.786;2022-12-05T13:44:35;9.07;;;4.80;;
63087;SDS011;49173;43.164;27.786;2022-12-05T13:47:16;7.95;;;3.92;;
63087;SDS011;49173;43.164;27.786;2022-12-05T13:52:38;12.65;;;8.98;;
63087;SDS011;49173;43.164;27.786;2022-12-05T13:57:56;7.13;;;4.20;;
63087;SDS011;49173;43.164;27.786;2022-12-05T14:02:58;7.60;;;3.83;;
63087;SDS011;49173;43.164;27.786;2022-12-05T14:05:37;9.50;;;3.35;;
63087;SDS011;49173;43.164;27.786;2022-12-05T14:15:52;7.93;;;4.00;;
63087;SDS011;49173;43.164;27.786;2022-12-05T14:18:21;10.25;;;3.85;;
63087;SDS011;49173;43.164;27.786;2022-12-05T14:24:22;6.70;;;4.22;;
63087;SDS011;49173;43.164;27.786;2022-12-05T14:27:00;7.05;;;4.00;;
63087;SDS011;49173;43.164;27.786;2022-12-05T14:32:28;7.72;;;4.18;;
63087;SDS011;49173;43.164;27.786;2022-12-05T14:37:37;5.63;;;3.75;;
63087;SDS011;49173;43.164;27.786;2022-12-05T14:42:49;9.70;;;3.65;;
63087;SDS011;49173;43.164;27.786;2022-12-05T14:47:57;6.07;;;3.70;;
63087;SDS011;49173;43.164;27.786;2022-12-05T14:50:48;23.95;;;12.55;;
63087;SDS011;49173;43.164;27.786;2022-12-05T14:58:33;23.70;;;14.85;;
63087;SDS011;49173;43.164;27.786;2022-12-05T15:06:56;12.98;;;8.35;;
63087;SDS011;49173;43.164;27.786;2022-12-05T15:12:47;21.02;;;10.60;;
63087;SDS011;49173;43.164;27.786;2022-12-05T15:29:10;10.35;;;5.75;;
63087;SDS011;49173;43.164;27.786;2022-12-05T15:31:44;9.07;;;5.55;;
63087;SDS011;49173;43.164;27.786;2022-12-05T15:34:26;10.10;;;5.97;;
63087;SDS011;49173;43.164;27.786;2022-12-05T15:37:04;13.75;;;8.60;;
63087;SDS011;49173;43.164;27.786;2022-12-05T15:39:50;12.73;;;6.70;;
63087;SDS011;49173;43.164;27.786;2022-12-05T15:42:45;14.45;;;7.35;;
63087;SDS011;49173;43.164;27.786;2022-12-05T15:45:17;8.02;;;4.93;;
63087;SDS011;49173;43.164;27.786;2022-12-05T15:48:10;7.40;;;4.25;;
63087;SDS011;49173;43.164;27.786;2022-12-05T15:50:40;9.48;;;4.15;;
63087;SDS011;49173;43.164;27.786;2022-12-05T15:55:53;8.43;;;4.80;;
63087;SDS011;49173;43.164;27.786;2022-12-05T16:01:19;7.53;;;4.47;;
63087;SDS011;49173;43.164;27.786;2022-12-05T16:03:50;7.10;;;4.05;;
63087;SDS011;49173;43.164;27.786;2022-12-05T16:06:34;28.13;;;15.80;;
63087;SDS011;49173;43.164;27.786;2022-12-05T16:09:06;49.20;;;33.55;;
63087;SDS011;49173;43.164;27.786;2022-12-05T16:11:37;40.03;;;25.77;;
63087;SDS011;49173;43.164;27.786;2022-12-05T16:14:03;30.63;;;21.90;;
63087;SDS011;49173;43.164;27.786;2022-12-05T16:16:33;15.18;;;11.88;;
63087;SDS011;49173;43.164;27.786;2022-12-05T16:19:05;27.65;;;22.23;;
63087;SDS011;49173;43.164;27.786;2022-12-05T16:21:42;15.52;;;12.00;;
63087;SDS011;49173;43.164;27.786;2022-12-05T16:24:17;11.93;;;9.43;;
63087;SDS011;49173;43.164;27.786;2022-12-05T16:32:35;6.72;;;5.10;;
63087;SDS011;49173;43.164;27.786;2022-12-05T16:35:02;6.88;;;5.00;;
63087;SDS011;49173;43.164;27.786;2022-12-05T16:37:30;13.68;;;6.78;;
63087;SDS011;49173;43.164;27.786;2022-12-05T16:39:55;8.63;;;5.30;;
63087;SDS011;49173;43.164;27.786;2022-12-05T16:42:23;9.52;;;6.00;;
63087;SDS011;49173;43.164;27.786;2022-12-05T16:44:58;9.18;;;6.78;;
63087;SDS011;49173;43.164;27.786;2022-12-05T16:50:28;16.95;;;6.88;;
63087;SDS011;49173;43.164;27.786;2022-12-05T16:53:00;12.88;;;6.75;;
63087;SDS011;49173;43.164;27.786;2022-12-05T16:55:46;8.40;;;5.72;;
63087;SDS011;49173;43.164;27.786;2022-12-05T16:58:19;14.00;;;8.55;;
63087;SDS011;49173;43.164;27.786;2022-12-05T17:00:47;92.25;;;42.53;;
63087;SDS011;49173;43.164;27.786;2022-12-05T17:03:14;44.58;;;25.30;;
63087;SDS011;49173;43.164;27.786;2022-12-05T17:05:40;81.00;;;72.38;;
63087;SDS011;49173;43.164;27.786;2022-12-05T17:08:06;26.98;;;24.40;;
63087;SDS011;49173;43.164;27.786;2022-12-05T17:10:32;38.20;;;32.55;;
63087;SDS011;49173;43.164;27.786;2022-12-05T17:12:58;21.92;;;15.98;;
63087;SDS011;49173;43.164;27.786;2022-12-05T17:15:25;23.83;;;19.73;;
63087;SDS011;49173;43.164;27.786;2022-12-05T17:17:51;23.63;;;19.90;;
63087;SDS011;49173;43.164;27.786;2022-12-05T17:20:18;9.85;;;6.82;;
63087;SDS011;49173;43.164;27.786;2022-12-05T17:22:44;15.77;;;14.00;;
63087;SDS011;49173;43.164;27.786;2022-12-05T17:25:29;12.15;;;7.88;;
63087;SDS011;49173;43.164;27.786;2022-12-05T17:28:00;18.20;;;10.05;;
63087;SDS011;49173;43.164;27.786;2022-12-05T17:30:26;12.82;;;8.70;;
63087;SDS011;49173;43.164;27.786;2022-12-05T17:32:53;11.00;;;7.28;;
63087;SDS011;49173;43.164;27.786;2022-12-05T17:35:19;8.63;;;5.85;;
63087;SDS011;49173;43.164;27.786;2022-12-05T17:37:47;8.45;;;6.57;;
63087;SDS011;49173;43.164;27.786;2022-12-05T17:40:13;29.85;;;19.83;;
63087;SDS011;49173;43.164;27.786;2022-12-05T17:42:39;53.70;;;31.20;;
63087;SDS011;49173;43.164;27.786;2022-12-05T17:45:10;53.00;;;29.17;;
63087;SDS011;49173;43.164;27.786;2022-12-05T17:47:37;59.45;;;30.67;;
63087;SDS011;49173;43.164;27.786;2022-12-05T17:50:03;69.38;;;38.08;;
63087;SDS011;49173;43.164;27.786;2022-12-05T17:52:30;56.45;;;30.63;;
63087;SDS011;49173;43.164;27.786;2022-12-05T17:54:58;44.47;;;25.00;;
63087;SDS011;49173;43.164;27.786;2022-12-05T17:57:24;20.02;;;11.65;;
63087;SDS011;49173;43.164;27.786;2022-12-05T17:59:49;9.38;;;5.53;;
63087;SDS011;49173;43.164;27.786;2022-12-05T18:02:15;42.45;;;21.55;;
63087;SDS011;49173;43.164;27.786;2022-12-05T18:04:44;20.23;;;7.90;;
63087;SDS011;49173;43.164;27.786;2022-12-05T18:07:11;18.00;;;9.48;;
63087;SDS011;49173;43.164;27.786;2022-12-05T18:09:37;13.10;;;7.55;;
63087;SDS011;49173;43.164;27.786;2022-12-05T18:12:03;19.95;;;13.00;;
63087;SDS011;49173;43.164;27.786;2022-12-05T18:14:29;13.38;;;7.97;;
63087;SDS011;49173;43.164;27.786;2022-12-05T18:16:55;20.80;;;13.88;;
63087;SDS011;49173;43.164;27.786;2022-12-05T18:19:21;7.80;;;5.97;;
63087;SDS011;49173;43.164;27.786;2022-12-05T18:21:46;16.60;;;11.10;;
63087;SDS011;49173;43.164;27.786;2022-12-05T18:24:12;15.40;;;7.80;;
63087;SDS011;49173;43.164;27.786;2022-12-05T18:26:38;17.25;;;11.45;;
63087;SDS011;49173;43.164;27.786;2022-12-05T18:29:04;30.48;;;18.02;;